Dades meteomassalio
Diari Summary for Setembre 17, 2017 Units:  Metric    English   Both
« Previous Day
Next Day »
Diari Semanal Mensual Anual Personalitzat
  Maxima: Minima: Mijana:
Temperatura: -17.8 °C -15.3 °C -10.6 °C
Rosada: -17.8 °C -17.1 °C -15.3 °C
Humitat: Humidity % 32 % 59 %
Velocitat del vent: 0 km/h 0 km/h 5.3 km/h
Racha vent: 0 km/h - -
Vent:- - SW
Pressio: 0 hPa 34486.4 hPa -
Pluja: 0 mm    
Historical Graphs
 
 
Tabular Data for Setembre 17, 2017
Time Temperature Dew Point Pressure Wind Wind Speed Wind Gust Humidity Rainfall Rate (Hourly) solar Conditions
-17.8 °C -17.8 °C 0 hPa Calm     Humidity % 0 mm SolarRadiationWatts/m^2 W/m2 Conditions
00:00 -11.9 °C -15.9 °C 34554.1 hPa SSW 26.9 km/h 26.9 km/h 61 % 0 mm 0.0 W/m2 CLR
00:05 -11.9 °C -16.1 °C 34554.1 hPa SSW 25.9 km/h 25.9 km/h 60 % 0 mm 0.0 W/m2 CLR
00:10 -11.9 °C -16.1 °C 34554.1 hPa SSW 26.9 km/h 26.9 km/h 60 % 0 mm 0.0 W/m2 CLR
00:15 -11.9 °C -16.1 °C 34554.1 hPa SSW 23.8 km/h 23.8 km/h 60 % 0 mm 0.0 W/m2 CLR
00:20 -11.9 °C -16.1 °C 34554.1 hPa South 26.9 km/h 26.9 km/h 60 % 0 mm 0.0 W/m2 CLR
00:25 -11.9 °C -16.1 °C 34554.1 hPa South 20.9 km/h 20.9 km/h 60 % 0 mm 0.0 W/m2 CLR
00:30 -12.2 °C -16.3 °C 34554.1 hPa SSW 26.9 km/h 26.9 km/h 60 % 0 mm 0.0 W/m2 CLR
00:35 -12.2 °C -16.3 °C 34554.1 hPa South 20.9 km/h 20.9 km/h 60 % 0 mm 0.0 W/m2 CLR
00:40 -12.6 °C -16.6 °C 34554.1 hPa SSW 26.9 km/h 26.9 km/h 60 % 0 mm 0.0 W/m2 CLR
00:45 -12.6 °C -16.6 °C 34567.7 hPa SSW 23.8 km/h 23.8 km/h 60 % 0 mm 0.0 W/m2 CLR
00:50 -12.8 °C -16.9 °C 34567.7 hPa SSW 23.8 km/h 23.8 km/h 60 % 0 mm 0.0 W/m2 CLR
00:55 -12.8 °C -16.9 °C 34567.7 hPa SSW 18.2 km/h 18.2 km/h 60 % 0 mm 0.0 W/m2 CLR
01:00 -13.2 °C -17.1 °C 34567.7 hPa SSE 17.9 km/h 17.9 km/h 61 % 0 mm 0.0 W/m2 CLR
01:05 -13.2 °C -16.8 °C 34567.7 hPa SSE 17.9 km/h 17.9 km/h 63 % 0 mm 0.0 W/m2 CLR
01:10 -13.2 °C -16.6 °C 34567.7 hPa South 11.9 km/h 11.9 km/h 65 % 0 mm 0.0 W/m2 CLR
01:15 -13.2 °C -16.5 °C 34567.7 hPa South 10.3 km/h 10.3 km/h 66 % 0 mm 0.0 W/m2 CLR
01:20 -13.2 °C -16.3 °C 34554.1 hPa South 17.9 km/h 17.9 km/h 67 % 0 mm 0.0 W/m2 CLR
01:25 -13.2 °C -16.3 °C 34554.1 hPa Calm     67 % 0 mm 0.0 W/m2 CLR
01:30 -13.2 °C -16.2 °C 34554.1 hPa South 20.8 km/h 20.8 km/h 68 % 0 mm 0.0 W/m2 CLR
01:35 -13.4 °C -16.6 °C 34554.1 hPa South 15 km/h 15 km/h 68 % 0 mm 0.0 W/m2 CLR
01:40 -13.4 °C -16.6 °C 34554.1 hPa Calm     68 % 0 mm 0.0 W/m2 CLR
01:45 -13.4 °C -16.4 °C 34554.1 hPa South 10.3 km/h 10.3 km/h 69 % 0 mm 0.0 W/m2 CLR
01:50 -13.4 °C -16.3 °C 34554.1 hPa SSE 15 km/h 15 km/h 70 % 0 mm 0.0 W/m2 CLR
01:55 -13.4 °C -16.2 °C 34554.1 hPa South 20.9 km/h 20.9 km/h 71 % 0 mm 0.0 W/m2 CLR
02:00 -13.4 °C -16.2 °C 34554.1 hPa South 20.9 km/h 20.9 km/h 71 % 0 mm 0.0 W/m2 CLR
02:05 -13.2 °C -15.9 °C 34567.7 hPa SSE 23.8 km/h 23.8 km/h 71 % 0 mm 0.0 W/m2 CLR
02:10 -13.2 °C -16 °C 34554.1 hPa South 26.9 km/h 26.9 km/h 70 % 0 mm 0.0 W/m2 CLR
02:15 -13.2 °C -16 °C 34554.1 hPa South 26.9 km/h 26.9 km/h 70 % 0 mm 0.0 W/m2 CLR
02:20 -13.2 °C -16 °C 34554.1 hPa SSE 23.8 km/h 23.8 km/h 70 % 0 mm 0.0 W/m2 CLR
02:25 -13.2 °C -16.1 °C 34554.1 hPa SSE 29.8 km/h 29.8 km/h 69 % 0 mm 0.0 W/m2 CLR
02:30 -13.4 °C -16.4 °C 34554.1 hPa South 20.9 km/h 20.9 km/h 69 % 0 mm 0.0 W/m2 CLR
02:35 -13.4 °C -16.4 °C 34554.1 hPa South 23.8 km/h 23.8 km/h 69 % 0 mm 0.0 W/m2 CLR
02:40 -13.2 °C -16.1 °C 34554.1 hPa South 15 km/h 15 km/h 69 % 0 mm 0.0 W/m2 CLR
02:45 -13.2 °C -16.1 °C 34554.1 hPa SSE 17.9 km/h 17.9 km/h 69 % 0 mm 0.0 W/m2 CLR
02:50 -13.2 °C -16 °C 34554.1 hPa Calm     70 % 0 mm 0.0 W/m2 CLR
02:55 -13.4 °C -16.2 °C 34554.1 hPa Calm     71 % 0 mm 0.0 W/m2 CLR
03:00 -13.4 °C -16.1 °C 34554.1 hPa Calm     72 % 0 mm 0.0 W/m2 CLR
03:05 -13.8 °C -16.3 °C 34554.1 hPa Calm     73 % 0 mm 0.0 W/m2 CLR
03:10 -13.8 °C -16.2 °C 34554.1 hPa Calm     74 % 0 mm 0.0 W/m2 CLR
03:15 -13.8 °C -16.1 °C 34567.7 hPa Calm     75 % 0 mm 0.0 W/m2 CLR
03:20 -13.8 °C -16.1 °C 34567.7 hPa Calm     75 % 0 mm 0.0 W/m2 CLR
03:25 -13.8 °C -15.9 °C 34567.7 hPa Calm     76 % 0 mm 0.0 W/m2 CLR
03:30 -13.8 °C -15.9 °C 34554.1 hPa Calm     77 % 0 mm 0.0 W/m2 CLR
03:35 -13.8 °C -15.9 °C 34567.7 hPa Calm     77 % 0 mm 0.0 W/m2 CLR
03:40 -14.1 °C -16.2 °C 34567.7 hPa Calm     77 % 0 mm 0.0 W/m2 CLR
03:45 -14.1 °C -16.2 °C 34567.7 hPa Calm     77 % 0 mm 0.0 W/m2 CLR
04:00 -14.4 °C -16.3 °C 34567.7 hPa Calm     78 % 0 mm 0.0 W/m2 CLR
04:05 -14.4 °C -16.3 °C 34567.7 hPa Calm     79 % 0 mm 0.0 W/m2 CLR
04:10 -14.4 °C -16.3 °C 34567.7 hPa Calm     79 % 0 mm 0.0 W/m2 CLR
04:15 -14.4 °C -16.3 °C 34577.8 hPa Calm     79 % 0 mm 0.0 W/m2 CLR
04:20 -14.7 °C -16.6 °C 34577.8 hPa Calm     79 % 0 mm 0.0 W/m2 CLR
04:25 -14.7 °C -16.4 °C 34577.8 hPa Calm     80 % 0 mm 0.0 W/m2 CLR
04:30 -14.7 °C -16.6 °C 34577.8 hPa Calm     79 % 0 mm 0.0 W/m2 CLR
04:35 -14.7 °C -16.4 °C 34577.8 hPa Calm     80 % 0 mm 0.0 W/m2 CLR
04:45 -15 °C -16.8 °C 34577.8 hPa Calm     80 % 0 mm 0.0 W/m2 CLR
04:50 -15 °C -16.8 °C 34567.7 hPa Calm     80 % 0 mm 0.0 W/m2 CLR
04:55 -15 °C -16.7 °C 34567.7 hPa Calm     81 % 0 mm 0.0 W/m2 CLR
05:00 -15 °C -16.7 °C 34567.7 hPa Calm     81 % 0 mm 0.0 W/m2 CLR
05:05 -15 °C -16.6 °C 34567.7 hPa Calm     82 % 0 mm 0.0 W/m2 CLR
05:10 -15 °C -16.6 °C 34567.7 hPa Calm     82 % 0 mm 0.0 W/m2 CLR
05:16 -15 °C -16.6 °C 34567.7 hPa Calm     82 % 0 mm 0.0 W/m2 CLR
05:21 -15 °C -16.5 °C 34567.7 hPa Calm     83 % 0 mm 0.0 W/m2 CLR
05:23 -15 °C -16.5 °C 34567.7 hPa Calm     83 % 0 mm 0.0 W/m2 CLR
05:26 -15 °C -16.5 °C 34567.7 hPa Calm     83 % 0 mm 0.0 W/m2 CLR
05:29 -15 °C -16.5 °C 34567.7 hPa Calm     83 % 0 mm 0.0 W/m2 CLR
05:34 -15 °C -16.4 °C 34567.7 hPa Calm     84 % 0 mm 0.0 W/m2 CLR
05:39 -15 °C -16.4 °C 34567.7 hPa Calm     84 % 0 mm 0.0 W/m2 CLR
05:44 -15 °C -16.4 °C 34567.7 hPa Calm     84 % 0 mm 0.0 W/m2 CLR
05:49 -15 °C -16.4 °C 34567.7 hPa Calm     84 % 0 mm 0.0 W/m2 CLR
05:54 -15 °C -16.3 °C 34567.7 hPa Calm     85 % 0 mm 0.0 W/m2 CLR
05:59 -15 °C -16.3 °C 34567.7 hPa Calm     85 % 0 mm 0.0 W/m2 CLR
06:04 -15 °C -16.3 °C 34554.1 hPa Calm     85 % 0 mm 0.0 W/m2 CLR
06:09 -15 °C -16.2 °C 34567.7 hPa Calm     86 % 0 mm 0.0 W/m2 CLR
06:14 -15 °C -16.2 °C 34567.7 hPa Calm     86 % 0 mm 0.0 W/m2 CLR
06:19 -15 °C -16.2 °C 34567.7 hPa Calm     86 % 0 mm 0.0 W/m2 CLR
06:24 -15 °C -16.2 °C 34567.7 hPa Calm     86 % 0 mm 0.0 W/m2 CLR
06:29 -15 °C -16.1 °C 34567.7 hPa Calm     87 % 0 mm 0.0 W/m2 CLR
06:34 -15 °C -16.1 °C 34567.7 hPa Calm     87 % 0 mm 0.0 W/m2 CLR
06:39 -15 °C -16.1 °C 34554.1 hPa Calm     87 % 0 mm 0.0 W/m2 CLR
06:44 -15 °C -16 °C 34567.7 hPa Calm     88 % 0 mm 0.0 W/m2 CLR
06:51 -15 °C -16 °C 34567.7 hPa Calm     88 % 0 mm 0.0 W/m2 CLR
06:56 -15 °C -16 °C 34567.7 hPa Calm     88 % 0 mm 0.0 W/m2 CLR
07:01 -15 °C -16 °C 34567.7 hPa Calm     88 % 0 mm 0.0 W/m2 CLR
07:06 -15 °C -16 °C 34567.7 hPa Calm     88 % 0 mm 0.0 W/m2 CLR
07:11 -15 °C -16 °C 34577.8 hPa Calm     88 % 0 mm 0.0 W/m2 CLR
07:21 -15 °C -16 °C 34577.8 hPa Calm     88 % 0 mm 0.0 W/m2 CLR
07:26 -15 °C -15.9 °C 34577.8 hPa Calm     89 % 0 mm 0.0 W/m2 CLR
07:31 -15 °C -15.9 °C 34577.8 hPa Calm     89 % 0 mm 0.0 W/m2 CLR
07:36 -15 °C -15.9 °C 34577.8 hPa Calm     89 % 0 mm 0.0 W/m2 OVC
07:41 -15 °C -15.9 °C 34577.8 hPa Calm     89 % 0 mm 0.0 W/m2 OVC
07:46 -15.3 °C -16.2 °C 34577.8 hPa Calm     89 % 0 mm 0.0 W/m2 OVC
07:51 -15 °C -15.9 °C 34591.4 hPa Calm     89 % 0 mm 5.0 W/m2 OVC
07:56 -15 °C -15.9 °C 34591.4 hPa Calm     89 % 0 mm 9.0 W/m2 BKN
08:01 -15 °C -15.9 °C 34591.4 hPa Calm     89 % 0 mm 11.0 W/m2 BKN
08:06 -15 °C -15.8 °C 34591.4 hPa Calm     90 % 0 mm 14.0 W/m2 BKN
08:11 -15.3 °C -16.2 °C 34591.4 hPa Calm     90 % 0 mm 19.0 W/m2 BKN
08:16 -15.3 °C -16.2 °C 34591.4 hPa Calm     90 % 0 mm 21.0 W/m2 BKN
08:21 -15.3 °C -16.2 °C 34591.4 hPa Calm     90 % 0 mm 32.0 W/m2 BKN
08:26 -15.3 °C -16.2 °C 34591.4 hPa Calm     90 % 0 mm 21.0 W/m2 BKN
08:36 -15.3 °C -16.2 °C 34591.4 hPa Calm     89 % 0 mm 54.0 W/m2 BKN
08:41 -15 °C -15.9 °C 34591.4 hPa Calm     89 % 0 mm 107.0 W/m2 CLR
08:46 -15 °C -16 °C 34591.4 hPa Calm     88 % 0 mm 81.0 W/m2 FEW
08:51 -14.7 °C -15.7 °C 34591.4 hPa Calm     88 % 0 mm 113.0 W/m2 CLR
08:56 -14.7 °C -15.8 °C 34591.4 hPa Calm     87 % 0 mm 160.0 W/m2 CLR
09:01 -14.4 °C -15.6 °C 34591.4 hPa Calm     86 % 0 mm 178.0 W/m2 CLR
09:06 -14.1 °C -15.4 °C 34591.4 hPa Calm     85 % 0 mm 195.0 W/m2 CLR
09:11 -14.1 °C -15.6 °C 34591.4 hPa Calm     83 % 0 mm 213.0 W/m2 CLR
09:16 -13.8 °C -15.4 °C 34601.5 hPa Calm     81 % 0 mm 232.0 W/m2 CLR
09:21 -13.4 °C -15.2 °C 34601.5 hPa Calm     80 % 0 mm 250.0 W/m2 CLR
09:26 -13.2 °C -15.2 °C 34601.5 hPa Calm     78 % 0 mm 265.0 W/m2 CLR
09:31 -13.2 °C -15.4 °C 34601.5 hPa Calm     75 % 0 mm 281.0 W/m2 CLR
09:36 -12.8 °C -15.3 °C 34601.5 hPa Calm     74 % 0 mm 301.0 W/m2 CLR
09:41 -12.6 °C -15.2 °C 34601.5 hPa Calm     72 % 0 mm 316.0 W/m2 CLR
09:46 -12.2 °C -15 °C 34601.5 hPa Calm     71 % 0 mm 330.0 W/m2 CLR
09:51 -11.9 °C -14.9 °C 34611.7 hPa Calm     69 % 0 mm 346.0 W/m2 CLR
09:56 -11.6 °C -14.7 °C 34611.7 hPa Calm     69 % 0 mm 360.0 W/m2 CLR
10:01 -11.3 °C -14.6 °C 34601.5 hPa Calm     67 % 0 mm 378.0 W/m2 CLR
10:06 -11.3 °C -14.6 °C 34611.7 hPa Calm     67 % 0 mm 394.0 W/m2 CLR
10:11 -11 °C -14.6 °C 34611.7 hPa Calm     65 % 0 mm 408.0 W/m2 CLR
10:16 -10.7 °C -14.3 °C 34611.7 hPa Calm     65 % 0 mm 422.0 W/m2 CLR
10:21 -10.7 °C -14.3 °C 34611.7 hPa Calm     65 % 0 mm 439.0 W/m2 CLR
10:26 -10.4 °C -14.2 °C 34611.7 hPa Calm     63 % 0 mm 454.0 W/m2 CLR
10:31 -10.1 °C -14.2 °C 34611.7 hPa Calm     61 % 0 mm 468.0 W/m2 CLR
10:36 -10.1 °C -14.2 °C 34611.7 hPa Calm     61 % 0 mm 480.0 W/m2 CLR
10:41 -9.8 °C -14.3 °C 34611.7 hPa Calm     58 % 0 mm 492.0 W/m2 CLR
10:46 -9.8 °C -14.6 °C 34611.7 hPa Calm     56 % 0 mm 510.0 W/m2 CLR
10:51 -9.8 °C -14.7 °C 34611.7 hPa Calm     55 % 0 mm 522.0 W/m2 CLR
10:56 -9.4 °C -14.7 °C 34611.7 hPa Calm     53 % 0 mm 534.0 W/m2 CLR
11:01 -9.4 °C -14.7 °C 34611.7 hPa Calm     53 % 0 mm 543.0 W/m2 CLR
11:07 -9.1 °C -14.3 °C 34601.5 hPa Calm     54 % 0 mm 563.0 W/m2 CLR
11:11 -9.1 °C -14.9 °C 34601.5 hPa Calm     50 % 0 mm 575.0 W/m2 CLR
11:16 -8.8 °C -14.8 °C 34601.5 hPa Calm     49 % 0 mm 585.0 W/m2 CLR
11:22 -8.8 °C -14.6 °C 34601.5 hPa Calm     50 % 0 mm 599.0 W/m2 CLR
11:27 -8.8 °C -14.6 °C 34601.5 hPa Calm     50 % 0 mm 610.0 W/m2 CLR
11:32 -8.8 °C -14.8 °C 34601.5 hPa Calm     49 % 0 mm 621.0 W/m2 CLR
11:37 -8.5 °C -14.5 °C 34591.4 hPa Calm     49 % 0 mm 631.0 W/m2 CLR
11:42 -8.2 °C -14.2 °C 34591.4 hPa Calm     49 % 0 mm 643.0 W/m2 CLR
11:47 -8.2 °C -14.6 °C 34591.4 hPa Calm     47 % 0 mm 654.0 W/m2 CLR
11:52 -7.9 °C -13.8 °C 34591.4 hPa Calm     50 % 0 mm 663.0 W/m2 CLR
11:57 -7.6 °C -13.8 °C 34591.4 hPa NNW 9 km/h 9 km/h 48 % 0 mm 671.0 W/m2 CLR
12:02 -7.6 °C -14 °C 34591.4 hPa NNE 3.1 km/h   47 % 0 mm 682.0 W/m2 CLR
12:07 -7.6 °C -14 °C 34591.4 hPa Calm     47 % 0 mm 691.0 W/m2 CLR
12:12 -7.3 °C -13.7 °C 34591.4 hPa Calm     47 % 0 mm 698.0 W/m2 CLR
12:17 -7.3 °C -13.7 °C 34591.4 hPa North 6 km/h   47 % 0 mm 705.0 W/m2 CLR
12:22 -7.3 °C -13.7 °C 34591.4 hPa Calm     47 % 0 mm 714.0 W/m2 CLR
12:27 -7.3 °C -13.7 °C 34591.4 hPa Calm     47 % 0 mm 721.0 W/m2 CLR
12:32 -7.3 °C -13.7 °C 34577.8 hPa North 9 km/h 9 km/h 47 % 0 mm 729.0 W/m2 CLR
12:37 -7 °C -13.4 °C 34577.8 hPa Calm     47 % 0 mm 737.0 W/m2 CLR
12:42 -7 °C -13.4 °C 34577.8 hPa NNW 6 km/h 6 km/h 47 % 0 mm 744.0 W/m2 CLR
12:47 -7 °C -13.6 °C 34577.8 hPa Calm     46 % 0 mm 751.0 W/m2 CLR
12:52 -6.7 °C -13.3 °C 34577.8 hPa NE 7.7 km/h 7.7 km/h 46 % 0 mm 758.0 W/m2 CLR
12:57 -7 °C -13.8 °C 34577.8 hPa North 5.1 km/h 5.1 km/h 45 % 0 mm 765.0 W/m2 CLR
13:02 -6.7 °C -13.5 °C 34567.7 hPa Calm     45 % 0 mm 735.0 W/m2 CLR
13:07 -6.3 °C -13.4 °C 34567.7 hPa Calm     44 % 0 mm 779.0 W/m2 CLR
13:12 -6.7 °C -13.7 °C 34567.7 hPa ENE 9 km/h 9 km/h 44 % 0 mm 691.0 W/m2 CLR
13:17 -6.7 °C -13.8 °C 34567.7 hPa NW 9 km/h 9 km/h 43 % 0 mm 759.0 W/m2 CLR
13:22 -6.3 °C -13.6 °C 34554.1 hPa NNW 2.6 km/h 2.6 km/h 43 % 0 mm 782.0 W/m2 CLR
13:27 -6.3 °C -13.8 °C 34554.1 hPa NNW 15 km/h 15 km/h 42 % 0 mm 786.0 W/m2 CLR
13:32 -6.1 °C -13.7 °C 34554.1 hPa NNE 6 km/h 6 km/h 41 % 0 mm 788.0 W/m2 CLR
13:37 -6.1 °C -13.7 °C 34554.1 hPa North 9 km/h 9 km/h 41 % 0 mm 788.0 W/m2 CLR
13:42 -6.1 °C -13.7 °C 34554.1 hPa North 9 km/h 9 km/h 41 % 0 mm 788.0 W/m2 CLR
13:47 -6.1 °C -13.9 °C 34554.1 hPa NNE 7.7 km/h 7.7 km/h 40 % 0 mm 795.0 W/m2 CLR
13:52 -6.1 °C -13.9 °C 34544 hPa NW 9 km/h 9 km/h 40 % 0 mm 791.0 W/m2 CLR
13:53 -6.1 °C -13.9 °C 34544 hPa NNW 9 km/h 9 km/h 40 % 0 mm 791.0 W/m2 CLR
13:58 -6.1 °C -13.7 °C 34544 hPa North 9 km/h 9 km/h 41 % 0 mm 784.0 W/m2 CLR
14:03 -6.1 °C -14.1 °C 34544 hPa NE 9 km/h 9 km/h 39 % 0 mm 782.0 W/m2 CLR
14:08 -5.7 °C -13.6 °C 34544 hPa North 12.9 km/h 12.9 km/h 40 % 0 mm 763.0 W/m2 CLR
14:13 -5.7 °C -14.1 °C 34533.8 hPa ENE 11.9 km/h 12.7 km/h 38 % 0 mm 751.0 W/m2 CLR
14:18 -5.4 °C -13.8 °C 34533.8 hPa Calm     38 % 0 mm 793.0 W/m2 CLR
14:23 -5.1 °C -13.9 °C 34533.8 hPa NNE 11.9 km/h 11.9 km/h 36 % 0 mm 823.0 W/m2 CLR
14:28 -5.7 °C -14.3 °C 34520.3 hPa NNE 11.9 km/h 11.9 km/h 37 % 0 mm 707.0 W/m2 CLR
14:33 -5.4 °C -14.2 °C 34520.3 hPa NE 6 km/h 6 km/h 36 % 0 mm 700.0 W/m2 CLR
14:38 -5.7 °C -14.7 °C 34520.3 hPa NE 9 km/h 9 km/h 35 % 0 mm 673.0 W/m2 CLR
14:43 -5.7 °C -14.5 °C 34520.3 hPa North 9 km/h 9 km/h 36 % 0 mm 752.0 W/m2 CLR
14:48 -5.7 °C -14.5 °C 34520.3 hPa NNE 9 km/h   36 % 0 mm 740.0 W/m2 CLR
14:53 -5.4 °C -13.8 °C 34520.3 hPa NW 20.9 km/h 20.9 km/h 38 % 0 mm 754.0 W/m2 CLR
14:58 -5.4 °C -14.4 °C 34510.1 hPa NNW 11.9 km/h 11.9 km/h 35 % 0 mm 802.0 W/m2 CLR
15:03 -5.4 °C -14.2 °C 34510.1 hPa Calm     36 % 0 mm 719.0 W/m2 CLR
15:08 -5.4 °C -14.4 °C 34510.1 hPa NW 17.9 km/h 17.9 km/h 35 % 0 mm 671.0 W/m2 CLR
15:13 -5.4 °C -14 °C 34510.1 hPa NW 9 km/h 9 km/h 37 % 0 mm 772.0 W/m2 CLR
15:18 -5.4 °C -14.4 °C 34496.6 hPa NNW 23.8 km/h 23.8 km/h 35 % 0 mm 680.0 W/m2 CLR
15:23 -5.4 °C -14.7 °C 34496.6 hPa NW 29.8 km/h 29.8 km/h 34 % 0 mm 770.0 W/m2 CLR
15:28 -5.4 °C -14.7 °C 34496.6 hPa NW 20.9 km/h 20.9 km/h 34 % 0 mm 659.0 W/m2 CLR
15:33 -5.4 °C -14.9 °C 34496.6 hPa North 10.3 km/h 10.3 km/h 33 % 0 mm 756.0 W/m2 CLR
15:38 -5.4 °C -14.9 °C 34496.6 hPa North 11.9 km/h 11.9 km/h 33 % 0 mm 621.0 W/m2 CLR
15:43 -5.4 °C -14.9 °C 34496.6 hPa NNW 15 km/h 15 km/h 33 % 0 mm 703.0 W/m2 CLR
15:48 -5.1 °C -14.4 °C 34496.6 hPa NNW 26.9 km/h 26.9 km/h 34 % 0 mm 631.0 W/m2 CLR
15:53 -5.4 °C -14.7 °C 34496.6 hPa North 15 km/h 15 km/h 34 % 0 mm 668.0 W/m2 CLR
15:58 -5.4 °C -14.2 °C 34496.6 hPa North 15 km/h 15 km/h 36 % 0 mm 687.0 W/m2 CLR
16:03 -5.1 °C -13.9 °C 34496.6 hPa NW 23.8 km/h 23.8 km/h 36 % 0 mm 619.0 W/m2 CLR
16:08 -5.4 °C -14.7 °C 34496.6 hPa NNW 23.8 km/h 23.8 km/h 34 % 0 mm 545.0 W/m2 CLR
16:13 -5.7 °C -14.9 °C 34496.6 hPa NW 23.8 km/h 23.8 km/h 34 % 0 mm 283.0 W/m2 CLR
16:18 -6.1 °C -15.2 °C 34496.6 hPa NW 11.9 km/h 11.9 km/h 34 % 0 mm 388.0 W/m2 CLR
16:23 -5.7 °C -14.7 °C 34496.6 hPa NW 17.9 km/h 17.9 km/h 35 % 0 mm 712.0 W/m2 CLR
16:28 -5.4 °C -14.9 °C 34486.4 hPa NW 32.8 km/h 32.8 km/h 33 % 0 mm 622.0 W/m2 CLR
16:33 -5.4 °C -14.9 °C 34486.4 hPa NW 9 km/h 9 km/h 33 % 0 mm 640.0 W/m2 CLR
16:38 -5.4 °C -14.9 °C 34486.4 hPa WNW 6 km/h 6 km/h 33 % 0 mm 362.0 W/m2 CLR
16:43 -5.4 °C -14.9 °C 34486.4 hPa NW 15 km/h 15 km/h 33 % 0 mm 515.0 W/m2 CLR
16:48 -5.4 °C -14.9 °C 34486.4 hPa NNW 9 km/h 9 km/h 33 % 0 mm 529.0 W/m2 CLR
16:53 -5.4 °C -15.2 °C 34486.4 hPa NW 15 km/h 15 km/h 32 % 0 mm 415.0 W/m2 CLR
16:58 -5.7 °C -15.4 °C 34486.4 hPa NNW 11.9 km/h 11.9 km/h 32 % 0 mm 253.0 W/m2 CLR
17:03 -5.7 °C -14.9 °C 34486.4 hPa NNW 7.7 km/h 7.7 km/h 34 % 0 mm 329.0 W/m2 CLR
17:08 -5.7 °C -15.2 °C 34486.4 hPa Calm     33 % 0 mm 262.0 W/m2 CLR
17:13 -5.7 °C -15.2 °C 34486.4 hPa NNW 9 km/h 9 km/h 33 % 0 mm 234.0 W/m2 CLR
17:18 -6.1 °C -15.4 °C 34486.4 hPa NNW 10.3 km/h 10.3 km/h 33 % 0 mm 213.0 W/m2 CLR
17:23 -6.1 °C -15.2 °C 34486.4 hPa WNW 6 km/h 6 km/h 34 % 0 mm 195.0 W/m2 CLR
17:28 -6.1 °C -15.4 °C 34486.4 hPa NW 9 km/h 9 km/h 33 % 0 mm 188.0 W/m2 CLR
17:33 -6.1 °C -15.2 °C 34486.4 hPa WNW 9 km/h 9 km/h 34 % 0 mm 179.0 W/m2 CLR
17:38 -6.1 °C -15.4 °C 34486.4 hPa NW 11.9 km/h 11.9 km/h 33 % 0 mm 186.0 W/m2 CLR
17:43 -6.3 °C -15.5 °C 34486.4 hPa NW 15 km/h 15 km/h 34 % 0 mm 186.0 W/m2 CLR
17:48 -6.3 °C -15.5 °C 34486.4 hPa NW 17.9 km/h 17.9 km/h 34 % 0 mm 144.0 W/m2 CLR
17:53 -6.3 °C -15.2 °C 34486.4 hPa NW 9 km/h 9 km/h 35 % 0 mm 151.0 W/m2 CLR
17:58 -6.3 °C -15.2 °C 34486.4 hPa NW 26.9 km/h 26.9 km/h 35 % 0 mm 163.0 W/m2 CLR
18:03 -6.3 °C -15.1 °C 34486.4 hPa Calm     36 % 0 mm 158.0 W/m2 CLR
18:08 -6.3 °C -15.2 °C 34486.4 hPa NW 9 km/h 9 km/h 35 % 0 mm 141.0 W/m2 CLR
18:13 -6.3 °C -14.8 °C 34486.4 hPa NW 5.1 km/h 5.1 km/h 37 % 0 mm 141.0 W/m2 CLR
18:18 -6.3 °C -15.1 °C 34486.4 hPa Calm   0.5 km/h 36 % 0 mm 179.0 W/m2 CLR
18:23 -6.3 °C -14.8 °C 34486.4 hPa Calm     37 % 0 mm 142.0 W/m2 CLR
18:29 -6.3 °C -15.1 °C 34486.4 hPa NW 9 km/h   36 % 0 mm 111.0 W/m2 CLR
18:34 -6.7 °C -15.3 °C 34486.4 hPa Calm     36 % 0 mm 100.0 W/m2 CLR
18:39 -6.7 °C -15.3 °C 34486.4 hPa WNW 9 km/h 9 km/h 36 % 0 mm 90.0 W/m2 CLR
18:44 -6.7 °C -15.3 °C 34486.4 hPa WNW 6 km/h 6 km/h 36 % 0 mm 79.0 W/m2 CLR
18:49 -7 °C -15.3 °C 34486.4 hPa WNW 9 km/h   37 % 0 mm 93.0 W/m2 FEW
18:54 -7 °C -15.3 °C 34486.4 hPa Calm     37 % 0 mm 98.0 W/m2 CLR
18:59 -7.3 °C -15.4 °C 34486.4 hPa Calm     38 % 0 mm 65.0 W/m2 CLR
19:04 -7.6 °C -15.7 °C 34486.4 hPa Calm     38 % 0 mm 44.0 W/m2 FEW
19:09 -7.6 °C -15.7 °C 34486.4 hPa Calm     38 % 0 mm 37.0 W/m2 BKN
19:14 -7.9 °C -15.9 °C 34486.4 hPa Calm     38 % 0 mm 33.0 W/m2 BKN
19:19 -8.2 °C -16.1 °C 34486.4 hPa Calm     39 % 0 mm 42.0 W/m2 BKN
19:24 -8.5 °C -16.1 °C 34496.6 hPa Calm     40 % 0 mm 44.0 W/m2 BKN
19:29 -8.8 °C -16.4 °C 34486.4 hPa Calm     40 % 0 mm 53.0 W/m2 SCT
19:34 -8.8 °C -16.6 °C 34486.4 hPa Calm     39 % 0 mm 58.0 W/m2 SCT
19:39 -8.8 °C -16.6 °C 34486.4 hPa Calm     39 % 0 mm 46.0 W/m2 SCT
19:44 -8.8 °C -16 °C 34486.4 hPa Calm     42 % 0 mm 26.0 W/m2 BKN
19:49 -9.1 °C -16.7 °C 34486.4 hPa Calm     40 % 0 mm 18.0 W/m2 BKN
19:54 -9.1 °C -16.5 °C 34486.4 hPa Calm     41 % 0 mm 12.0 W/m2 BKN
19:59 -9.4 °C -16.4 °C 34496.6 hPa Calm     43 % 0 mm 7.0 W/m2 BKN
20:04 -9.4 °C -16.6 °C 34496.6 hPa Calm     42 % 0 mm 5.0 W/m2 OVC
20:09 -9.8 °C -16.8 °C 34496.6 hPa Calm     42 % 0 mm 0.0 W/m2 OVC
20:14 -9.8 °C -16.2 °C 34496.6 hPa Calm     46 % 0 mm 0.0 W/m2 OVC
20:19 -10.1 °C -16.2 °C 34496.6 hPa Calm     47 % 0 mm 0.0 W/m2 CLR
20:24 -10.1 °C -16.1 °C 34496.6 hPa Calm     48 % 0 mm 0.0 W/m2 CLR
20:29 -10.1 °C -15.3 °C 34496.6 hPa Calm     53 % 0 mm 0.0 W/m2 CLR
20:34 -10.1 °C -15.6 °C 34496.6 hPa Calm     51 % 0 mm 0.0 W/m2 CLR
20:39 -9.4 °C -14.7 °C 34496.6 hPa Calm     53 % 0 mm 0.0 W/m2 CLR
20:44 -9.8 °C -15.3 °C 34510.1 hPa Calm     51 % 0 mm 0.0 W/m2 CLR
20:49 -9.8 °C -14.6 °C 34496.6 hPa Calm     56 % 0 mm 0.0 W/m2 CLR
20:54 -10.1 °C -14.6 °C 34510.1 hPa Calm     58 % 0 mm 0.0 W/m2 CLR
20:59 -10.1 °C -14.9 °C 34510.1 hPa Calm     56 % 0 mm 0.0 W/m2 CLR
21:04 -10.4 °C -15 °C 34510.1 hPa Calm     57 % 0 mm 0.0 W/m2 CLR
21:09 -10.4 °C -14.9 °C 34520.3 hPa Calm     58 % 0 mm 0.0 W/m2 CLR
21:14 -10.4 °C -14.6 °C 34510.1 hPa Calm     60 % 0 mm 0.0 W/m2 CLR
21:19 -10.7 °C -14.8 °C 34520.3 hPa Calm     61 % 0 mm 0.0 W/m2 CLR
21:24 -10.7 °C -14.8 °C 34510.1 hPa Calm     61 % 0 mm 0.0 W/m2 CLR
21:29 -10.7 °C -14.8 °C 34510.1 hPa Calm     61 % 0 mm 0.0 W/m2 CLR
21:39 -10.7 °C -14.6 °C 34520.3 hPa Calm     62 % 0 mm 0.0 W/m2 CLR
21:44 -11 °C -14.9 °C 34533.8 hPa Calm     62 % 0 mm 0.0 W/m2 CLR
21:49 -11 °C -14.8 °C 34533.8 hPa Calm     63 % 0 mm 0.0 W/m2 CLR
21:54 -11 °C -14.7 °C 34533.8 hPa Calm     64 % 0 mm 0.0 W/m2 CLR
21:59 -11 °C -14.6 °C 34533.8 hPa Calm     65 % 0 mm 0.0 W/m2 CLR
22:04 -11 °C -14.8 °C 34533.8 hPa Calm     63 % 0 mm 0.0 W/m2 CLR
22:09 -11 °C -14.8 °C 34533.8 hPa Calm     63 % 0 mm 0.0 W/m2 CLR
22:14 -11 °C -14.7 °C 34533.8 hPa Calm     64 % 0 mm 0.0 W/m2 CLR
22:19 -11 °C -14.7 °C 34533.8 hPa Calm     64 % 0 mm 0.0 W/m2 CLR
22:24 -11 °C -14.9 °C 34533.8 hPa Calm     62 % 0 mm 0.0 W/m2 CLR
22:29 -11.3 °C -15.2 °C 34544 hPa Calm     62 % 0 mm 0.0 W/m2 CLR
22:34 -11.3 °C -14.9 °C 34544 hPa Calm     64 % 0 mm 0.0 W/m2 CLR
22:39 -11.6 °C -15.1 °C 34544 hPa Calm     65 % 0 mm 0.0 W/m2 CLR
22:49 -11.6 °C -15 °C 34533.8 hPa Calm     66 % 0 mm 0.0 W/m2 CLR
22:54 -11.9 °C -15.3 °C 34533.8 hPa Calm     66 % 0 mm 0.0 W/m2 CLR
22:59 -11.9 °C -15.4 °C 34544 hPa Calm     65 % 0 mm 0.0 W/m2 CLR
23:04 -11.9 °C -15.2 °C 34544 hPa Calm     67 % 0 mm 0.0 W/m2 CLR
23:09 -11.9 °C -15.2 °C 34544 hPa Calm     67 % 0 mm 0.0 W/m2 CLR
23:14 -11.9 °C -15.2 °C 34544 hPa Calm     67 % 0 mm 0.0 W/m2 CLR
23:19 -11.9 °C -15.1 °C 34544 hPa Calm     68 % 0 mm 0.0 W/m2 CLR
23:24 -11.9 °C -15.1 °C 34544 hPa Calm     68 % 0 mm 0.0 W/m2 CLR
23:29 -11.9 °C -15.1 °C 34544 hPa Calm     68 % 0 mm 0.0 W/m2 CLR
23:34 -11.6 °C -14.7 °C 34544 hPa Calm     69 % 0 mm 0.0 W/m2 CLR
23:39 -11.6 °C -14.7 °C 34544 hPa Calm     69 % 0 mm 0.0 W/m2 CLR
23:44 -11.6 °C -14.8 °C 34544 hPa Calm     68 % 0 mm 0.0 W/m2 CLR
23:49 -11.6 °C -14.9 °C 34544 hPa Calm     67 % 0 mm 0.0 W/m2 CLR
23:54 -11.6 °C -14.9 °C 34544 hPa Calm     67 % 0 mm 0.0 W/m2 CLR
23:59 -11.9 °C -15.2 °C 34544 hPa Calm     67 % 0 mm 0.0 W/m2 CLR
Lo Temps de Massalio
Compliments of Weather Underground - 1.25 mb